sensor_id;sensor_type;location;lat;lon;timestamp;P1;durP1;ratioP1;P2;durP2;ratioP2
10005;SDS011;5042;42.626;23.382;2024-02-15T00:01:29;9.73;;;8.73;;
10005;SDS011;5042;42.626;23.382;2024-02-15T00:03:57;10.53;;;9.00;;
10005;SDS011;5042;42.626;23.382;2024-02-15T00:06:24;9.50;;;8.50;;
10005;SDS011;5042;42.626;23.382;2024-02-15T00:08:51;10.43;;;9.10;;
10005;SDS011;5042;42.626;23.382;2024-02-15T00:11:18;10.53;;;9.03;;
10005;SDS011;5042;42.626;23.382;2024-02-15T00:13:45;11.07;;;8.93;;
10005;SDS011;5042;42.626;23.382;2024-02-15T00:16:13;9.47;;;8.10;;
10005;SDS011;5042;42.626;23.382;2024-02-15T00:18:40;9.23;;;8.33;;
10005;SDS011;5042;42.626;23.382;2024-02-15T00:21:08;10.50;;;8.70;;
10005;SDS011;5042;42.626;23.382;2024-02-15T00:23:36;11.03;;;8.60;;
10005;SDS011;5042;42.626;23.382;2024-02-15T00:26:03;9.80;;;8.80;;
10005;SDS011;5042;42.626;23.382;2024-02-15T00:28:30;10.93;;;8.43;;
10005;SDS011;5042;42.626;23.382;2024-02-15T00:30:59;10.17;;;8.70;;
10005;SDS011;5042;42.626;23.382;2024-02-15T00:33:26;10.83;;;9.13;;
10005;SDS011;5042;42.626;23.382;2024-02-15T00:35:53;11.07;;;8.93;;
10005;SDS011;5042;42.626;23.382;2024-02-15T00:38:21;9.20;;;8.23;;
10005;SDS011;5042;42.626;23.382;2024-02-15T00:40:48;11.33;;;8.80;;
10005;SDS011;5042;42.626;23.382;2024-02-15T00:43:15;10.37;;;8.83;;
10005;SDS011;5042;42.626;23.382;2024-02-15T00:45:42;9.70;;;8.57;;
10005;SDS011;5042;42.626;23.382;2024-02-15T00:48:09;9.30;;;8.33;;
10005;SDS011;5042;42.626;23.382;2024-02-15T00:50:36;9.40;;;8.17;;
10005;SDS011;5042;42.626;23.382;2024-02-15T00:53:03;9.60;;;8.60;;
10005;SDS011;5042;42.626;23.382;2024-02-15T00:55:31;9.60;;;8.30;;
10005;SDS011;5042;42.626;23.382;2024-02-15T00:57:58;10.67;;;8.80;;
10005;SDS011;5042;42.626;23.382;2024-02-15T01:00:25;9.73;;;8.53;;
10005;SDS011;5042;42.626;23.382;2024-02-15T01:02:52;9.80;;;8.27;;
10005;SDS011;5042;42.626;23.382;2024-02-15T01:05:19;9.63;;;8.00;;
10005;SDS011;5042;42.626;23.382;2024-02-15T01:07:47;10.80;;;8.93;;
10005;SDS011;5042;42.626;23.382;2024-02-15T01:10:14;9.47;;;8.23;;
10005;SDS011;5042;42.626;23.382;2024-02-15T01:12:43;9.30;;;8.30;;
10005;SDS011;5042;42.626;23.382;2024-02-15T01:15:10;8.93;;;7.67;;
10005;SDS011;5042;42.626;23.382;2024-02-15T01:17:37;9.53;;;8.37;;
10005;SDS011;5042;42.626;23.382;2024-02-15T01:20:04;9.97;;;8.27;;
10005;SDS011;5042;42.626;23.382;2024-02-15T01:22:32;11.77;;;8.23;;
10005;SDS011;5042;42.626;23.382;2024-02-15T01:25:00;10.60;;;8.07;;
10005;SDS011;5042;42.626;23.382;2024-02-15T01:27:27;9.03;;;7.73;;
10005;SDS011;5042;42.626;23.382;2024-02-15T01:29:56;8.27;;;7.30;;
10005;SDS011;5042;42.626;23.382;2024-02-15T01:32:23;9.47;;;8.00;;
10005;SDS011;5042;42.626;23.382;2024-02-15T01:34:50;9.00;;;8.00;;
10005;SDS011;5042;42.626;23.382;2024-02-15T01:37:19;10.13;;;8.77;;
10005;SDS011;5042;42.626;23.382;2024-02-15T01:39:46;8.83;;;7.73;;
10005;SDS011;5042;42.626;23.382;2024-02-15T01:42:13;9.80;;;8.30;;
10005;SDS011;5042;42.626;23.382;2024-02-15T01:44:40;10.30;;;8.43;;
10005;SDS011;5042;42.626;23.382;2024-02-15T01:47:10;10.87;;;8.60;;
10005;SDS011;5042;42.626;23.382;2024-02-15T01:49:38;10.93;;;7.77;;
10005;SDS011;5042;42.626;23.382;2024-02-15T01:52:06;10.03;;;8.13;;
10005;SDS011;5042;42.626;23.382;2024-02-15T01:54:35;11.47;;;8.93;;
10005;SDS011;5042;42.626;23.382;2024-02-15T01:57:04;11.13;;;8.63;;
10005;SDS011;5042;42.626;23.382;2024-02-15T01:59:31;10.23;;;8.43;;
10005;SDS011;5042;42.626;23.382;2024-02-15T02:01:58;9.70;;;7.93;;
10005;SDS011;5042;42.626;23.382;2024-02-15T02:04:27;10.17;;;7.80;;
10005;SDS011;5042;42.626;23.382;2024-02-15T02:06:53;10.37;;;7.87;;
10005;SDS011;5042;42.626;23.382;2024-02-15T02:09:23;9.27;;;8.10;;
10005;SDS011;5042;42.626;23.382;2024-02-15T02:11:51;9.80;;;8.60;;
10005;SDS011;5042;42.626;23.382;2024-02-15T02:14:18;10.60;;;8.57;;
10005;SDS011;5042;42.626;23.382;2024-02-15T02:16:45;11.40;;;8.93;;
10005;SDS011;5042;42.626;23.382;2024-02-15T02:19:12;10.23;;;8.30;;
10005;SDS011;5042;42.626;23.382;2024-02-15T02:21:41;9.67;;;8.67;;
10005;SDS011;5042;42.626;23.382;2024-02-15T02:24:10;10.33;;;8.53;;
10005;SDS011;5042;42.626;23.382;2024-02-15T02:26:41;10.70;;;8.23;;
10005;SDS011;5042;42.626;23.382;2024-02-15T02:29:08;10.73;;;8.23;;
10005;SDS011;5042;42.626;23.382;2024-02-15T02:31:35;9.87;;;8.60;;
10005;SDS011;5042;42.626;23.382;2024-02-15T02:34:03;9.83;;;8.40;;
10005;SDS011;5042;42.626;23.382;2024-02-15T02:36:31;10.83;;;8.50;;
10005;SDS011;5042;42.626;23.382;2024-02-15T02:38:58;8.43;;;7.23;;
10005;SDS011;5042;42.626;23.382;2024-02-15T02:41:26;10.60;;;8.47;;
10005;SDS011;5042;42.626;23.382;2024-02-15T02:43:55;10.80;;;8.60;;
10005;SDS011;5042;42.626;23.382;2024-02-15T02:46:22;10.67;;;8.53;;
10005;SDS011;5042;42.626;23.382;2024-02-15T02:48:49;11.47;;;9.13;;
10005;SDS011;5042;42.626;23.382;2024-02-15T02:51:16;13.00;;;8.73;;
10005;SDS011;5042;42.626;23.382;2024-02-15T02:53:44;9.53;;;8.17;;
10005;SDS011;5042;42.626;23.382;2024-02-15T02:56:11;10.03;;;8.77;;
10005;SDS011;5042;42.626;23.382;2024-02-15T02:58:39;10.63;;;8.73;;
10005;SDS011;5042;42.626;23.382;2024-02-15T03:01:09;12.87;;;8.63;;
10005;SDS011;5042;42.626;23.382;2024-02-15T03:03:36;10.80;;;8.47;;
10005;SDS011;5042;42.626;23.382;2024-02-15T03:06:04;11.40;;;7.63;;
10005;SDS011;5042;42.626;23.382;2024-02-15T03:08:31;11.97;;;9.33;;
10005;SDS011;5042;42.626;23.382;2024-02-15T03:10:59;11.73;;;9.47;;
10005;SDS011;5042;42.626;23.382;2024-02-15T03:13:26;12.50;;;8.73;;
10005;SDS011;5042;42.626;23.382;2024-02-15T03:15:53;13.10;;;9.30;;
10005;SDS011;5042;42.626;23.382;2024-02-15T03:18:21;12.77;;;8.83;;
10005;SDS011;5042;42.626;23.382;2024-02-15T03:20:49;10.50;;;8.50;;
10005;SDS011;5042;42.626;23.382;2024-02-15T03:23:16;11.60;;;9.07;;
10005;SDS011;5042;42.626;23.382;2024-02-15T03:25:43;10.87;;;9.30;;
10005;SDS011;5042;42.626;23.382;2024-02-15T03:28:10;12.70;;;9.00;;
10005;SDS011;5042;42.626;23.382;2024-02-15T03:30:37;13.17;;;9.33;;
10005;SDS011;5042;42.626;23.382;2024-02-15T03:33:04;11.60;;;9.27;;
10005;SDS011;5042;42.626;23.382;2024-02-15T03:35:33;10.00;;;8.73;;
10005;SDS011;5042;42.626;23.382;2024-02-15T03:38:00;11.37;;;9.27;;
10005;SDS011;5042;42.626;23.382;2024-02-15T03:40:27;11.20;;;9.20;;
10005;SDS011;5042;42.626;23.382;2024-02-15T03:42:55;11.17;;;8.77;;
10005;SDS011;5042;42.626;23.382;2024-02-15T03:45:22;11.57;;;8.87;;
10005;SDS011;5042;42.626;23.382;2024-02-15T03:47:50;14.90;;;10.23;;
10005;SDS011;5042;42.626;23.382;2024-02-15T03:50:17;12.77;;;9.47;;
10005;SDS011;5042;42.626;23.382;2024-02-15T03:52:48;11.57;;;9.40;;
10005;SDS011;5042;42.626;23.382;2024-02-15T03:55:15;12.70;;;8.97;;
10005;SDS011;5042;42.626;23.382;2024-02-15T03:57:42;11.13;;;9.33;;
10005;SDS011;5042;42.626;23.382;2024-02-15T04:00:11;12.50;;;9.93;;
10005;SDS011;5042;42.626;23.382;2024-02-15T04:02:39;13.53;;;9.50;;
10005;SDS011;5042;42.626;23.382;2024-02-15T04:05:06;11.53;;;9.27;;
10005;SDS011;5042;42.626;23.382;2024-02-15T04:07:34;13.50;;;9.77;;
10005;SDS011;5042;42.626;23.382;2024-02-15T04:10:05;13.10;;;9.30;;
10005;SDS011;5042;42.626;23.382;2024-02-15T04:12:33;13.10;;;9.17;;
10005;SDS011;5042;42.626;23.382;2024-02-15T04:15:00;11.53;;;8.73;;
10005;SDS011;5042;42.626;23.382;2024-02-15T04:17:31;11.87;;;9.17;;
10005;SDS011;5042;42.626;23.382;2024-02-15T04:20:00;16.53;;;9.47;;
10005;SDS011;5042;42.626;23.382;2024-02-15T04:22:28;12.63;;;9.50;;
10005;SDS011;5042;42.626;23.382;2024-02-15T04:24:57;11.93;;;8.90;;
10005;SDS011;5042;42.626;23.382;2024-02-15T04:27:25;11.67;;;9.07;;
10005;SDS011;5042;42.626;23.382;2024-02-15T04:29:52;10.93;;;9.07;;
10005;SDS011;5042;42.626;23.382;2024-02-15T04:32:19;12.63;;;9.20;;
10005;SDS011;5042;42.626;23.382;2024-02-15T04:34:47;13.33;;;9.50;;
10005;SDS011;5042;42.626;23.382;2024-02-15T04:37:14;12.10;;;9.60;;
10005;SDS011;5042;42.626;23.382;2024-02-15T04:39:42;11.90;;;10.07;;
10005;SDS011;5042;42.626;23.382;2024-02-15T04:42:09;13.37;;;9.60;;
10005;SDS011;5042;42.626;23.382;2024-02-15T04:44:39;11.57;;;9.37;;
10005;SDS011;5042;42.626;23.382;2024-02-15T04:47:06;12.73;;;9.30;;
10005;SDS011;5042;42.626;23.382;2024-02-15T04:49:33;11.40;;;9.13;;
10005;SDS011;5042;42.626;23.382;2024-02-15T04:52:03;12.17;;;9.60;;
10005;SDS011;5042;42.626;23.382;2024-02-15T04:54:31;12.00;;;9.27;;
10005;SDS011;5042;42.626;23.382;2024-02-15T04:56:59;10.73;;;9.60;;
10005;SDS011;5042;42.626;23.382;2024-02-15T04:59:26;12.43;;;9.27;;
10005;SDS011;5042;42.626;23.382;2024-02-15T05:01:55;13.00;;;9.00;;
10005;SDS011;5042;42.626;23.382;2024-02-15T05:04:22;10.30;;;8.60;;
10005;SDS011;5042;42.626;23.382;2024-02-15T05:06:49;13.00;;;10.27;;
10005;SDS011;5042;42.626;23.382;2024-02-15T05:09:16;9.80;;;7.83;;
10005;SDS011;5042;42.626;23.382;2024-02-15T05:11:43;11.20;;;9.60;;
10005;SDS011;5042;42.626;23.382;2024-02-15T05:14:12;11.33;;;8.53;;
10005;SDS011;5042;42.626;23.382;2024-02-15T05:16:44;11.73;;;9.20;;
10005;SDS011;5042;42.626;23.382;2024-02-15T05:19:14;13.40;;;10.57;;
10005;SDS011;5042;42.626;23.382;2024-02-15T05:21:42;13.50;;;10.10;;
10005;SDS011;5042;42.626;23.382;2024-02-15T05:24:11;12.33;;;8.97;;
10005;SDS011;5042;42.626;23.382;2024-02-15T05:26:39;11.87;;;9.73;;
10005;SDS011;5042;42.626;23.382;2024-02-15T05:29:07;13.10;;;9.40;;
10005;SDS011;5042;42.626;23.382;2024-02-15T05:31:35;12.73;;;9.37;;
10005;SDS011;5042;42.626;23.382;2024-02-15T05:34:04;12.37;;;8.60;;
10005;SDS011;5042;42.626;23.382;2024-02-15T05:36:34;11.53;;;9.40;;
10005;SDS011;5042;42.626;23.382;2024-02-15T05:39:01;12.67;;;9.93;;
10005;SDS011;5042;42.626;23.382;2024-02-15T05:41:30;12.10;;;9.20;;
10005;SDS011;5042;42.626;23.382;2024-02-15T05:43:58;11.57;;;9.57;;
10005;SDS011;5042;42.626;23.382;2024-02-15T05:46:25;12.67;;;9.50;;
10005;SDS011;5042;42.626;23.382;2024-02-15T05:48:53;12.57;;;9.07;;
10005;SDS011;5042;42.626;23.382;2024-02-15T05:51:21;12.70;;;8.93;;
10005;SDS011;5042;42.626;23.382;2024-02-15T05:53:50;12.03;;;8.87;;
10005;SDS011;5042;42.626;23.382;2024-02-15T05:56:20;12.00;;;9.00;;
10005;SDS011;5042;42.626;23.382;2024-02-15T05:58:47;11.20;;;9.30;;
10005;SDS011;5042;42.626;23.382;2024-02-15T06:01:13;10.70;;;9.10;;
10005;SDS011;5042;42.626;23.382;2024-02-15T06:03:40;13.77;;;9.80;;
10005;SDS011;5042;42.626;23.382;2024-02-15T06:06:09;11.70;;;8.53;;
10005;SDS011;5042;42.626;23.382;2024-02-15T06:08:36;11.63;;;8.97;;
10005;SDS011;5042;42.626;23.382;2024-02-15T06:11:05;12.33;;;9.33;;
10005;SDS011;5042;42.626;23.382;2024-02-15T06:13:32;18.03;;;9.17;;
10005;SDS011;5042;42.626;23.382;2024-02-15T06:15:59;14.57;;;9.57;;
10005;SDS011;5042;42.626;23.382;2024-02-15T06:18:28;12.10;;;9.00;;
10005;SDS011;5042;42.626;23.382;2024-02-15T06:20:59;11.57;;;8.70;;
10005;SDS011;5042;42.626;23.382;2024-02-15T06:23:27;13.40;;;8.73;;
10005;SDS011;5042;42.626;23.382;2024-02-15T06:25:54;12.83;;;9.37;;
10005;SDS011;5042;42.626;23.382;2024-02-15T06:28:24;12.20;;;9.80;;
10005;SDS011;5042;42.626;23.382;2024-02-15T06:31:09;13.93;;;9.87;;
10005;SDS011;5042;42.626;23.382;2024-02-15T06:33:54;12.30;;;9.93;;
10005;SDS011;5042;42.626;23.382;2024-02-15T06:36:39;16.43;;;9.53;;
10005;SDS011;5042;42.626;23.382;2024-02-15T06:39:24;13.80;;;9.87;;
10005;SDS011;5042;42.626;23.382;2024-02-15T06:42:10;11.17;;;8.80;;
10005;SDS011;5042;42.626;23.382;2024-02-15T06:44:42;13.27;;;9.00;;
10005;SDS011;5042;42.626;23.382;2024-02-15T06:47:09;11.63;;;8.57;;
10005;SDS011;5042;42.626;23.382;2024-02-15T06:49:37;13.27;;;9.60;;
10005;SDS011;5042;42.626;23.382;2024-02-15T06:52:06;12.00;;;9.50;;
10005;SDS011;5042;42.626;23.382;2024-02-15T06:54:33;12.43;;;8.93;;
10005;SDS011;5042;42.626;23.382;2024-02-15T06:57:01;12.53;;;9.33;;
10005;SDS011;5042;42.626;23.382;2024-02-15T06:59:29;15.00;;;9.53;;
10005;SDS011;5042;42.626;23.382;2024-02-15T07:01:58;12.43;;;8.70;;
10005;SDS011;5042;42.626;23.382;2024-02-15T07:04:25;12.17;;;7.87;;
10005;SDS011;5042;42.626;23.382;2024-02-15T07:06:52;13.27;;;9.33;;
10005;SDS011;5042;42.626;23.382;2024-02-15T07:09:20;14.30;;;9.30;;
10005;SDS011;5042;42.626;23.382;2024-02-15T07:11:49;13.10;;;9.37;;
10005;SDS011;5042;42.626;23.382;2024-02-15T07:14:16;13.90;;;10.00;;
10005;SDS011;5042;42.626;23.382;2024-02-15T07:16:44;10.67;;;7.70;;
10005;SDS011;5042;42.626;23.382;2024-02-15T07:19:13;13.83;;;8.97;;
10005;SDS011;5042;42.626;23.382;2024-02-15T07:21:40;14.10;;;9.00;;
10005;SDS011;5042;42.626;23.382;2024-02-15T07:24:07;12.73;;;8.40;;
10005;SDS011;5042;42.626;23.382;2024-02-15T07:26:35;11.63;;;8.70;;
10005;SDS011;5042;42.626;23.382;2024-02-15T07:29:02;12.93;;;9.07;;
10005;SDS011;5042;42.626;23.382;2024-02-15T07:31:31;11.73;;;8.37;;
10005;SDS011;5042;42.626;23.382;2024-02-15T07:33:59;11.83;;;8.87;;
10005;SDS011;5042;42.626;23.382;2024-02-15T07:36:28;13.23;;;8.53;;
10005;SDS011;5042;42.626;23.382;2024-02-15T07:38:55;9.87;;;7.63;;
10005;SDS011;5042;42.626;23.382;2024-02-15T07:41:26;10.93;;;8.17;;
10005;SDS011;5042;42.626;23.382;2024-02-15T07:43:53;11.00;;;8.50;;
10005;SDS011;5042;42.626;23.382;2024-02-15T07:46:20;10.17;;;7.73;;
10005;SDS011;5042;42.626;23.382;2024-02-15T07:48:49;12.90;;;9.43;;
10005;SDS011;5042;42.626;23.382;2024-02-15T07:51:16;14.60;;;8.73;;
10005;SDS011;5042;42.626;23.382;2024-02-15T07:53:46;10.27;;;8.33;;
10005;SDS011;5042;42.626;23.382;2024-02-15T07:56:13;13.27;;;8.57;;
10005;SDS011;5042;42.626;23.382;2024-02-15T07:58:42;9.87;;;6.97;;
10005;SDS011;5042;42.626;23.382;2024-02-15T08:01:11;12.20;;;9.00;;
10005;SDS011;5042;42.626;23.382;2024-02-15T08:03:38;12.97;;;9.20;;
10005;SDS011;5042;42.626;23.382;2024-02-15T08:06:09;11.60;;;8.20;;
10005;SDS011;5042;42.626;23.382;2024-02-15T08:08:38;12.63;;;8.80;;
10005;SDS011;5042;42.626;23.382;2024-02-15T08:11:07;14.10;;;9.00;;
10005;SDS011;5042;42.626;23.382;2024-02-15T08:13:40;12.60;;;9.53;;
10005;SDS011;5042;42.626;23.382;2024-02-15T08:16:09;14.03;;;9.83;;
10005;SDS011;5042;42.626;23.382;2024-02-15T08:18:37;12.33;;;8.63;;
10005;SDS011;5042;42.626;23.382;2024-02-15T08:21:05;11.57;;;8.10;;
10005;SDS011;5042;42.626;23.382;2024-02-15T08:23:31;10.70;;;8.70;;
10005;SDS011;5042;42.626;23.382;2024-02-15T08:25:58;9.17;;;7.83;;
10005;SDS011;5042;42.626;23.382;2024-02-15T08:28:27;10.67;;;8.07;;
10005;SDS011;5042;42.626;23.382;2024-02-15T08:30:54;10.03;;;8.27;;
10005;SDS011;5042;42.626;23.382;2024-02-15T08:33:22;11.30;;;7.93;;
10005;SDS011;5042;42.626;23.382;2024-02-15T08:35:53;9.37;;;7.90;;
10005;SDS011;5042;42.626;23.382;2024-02-15T08:38:21;11.83;;;8.20;;
10005;SDS011;5042;42.626;23.382;2024-02-15T08:40:49;11.73;;;8.50;;
10005;SDS011;5042;42.626;23.382;2024-02-15T08:43:16;11.47;;;8.33;;
10005;SDS011;5042;42.626;23.382;2024-02-15T08:45:45;11.27;;;9.07;;
10005;SDS011;5042;42.626;23.382;2024-02-15T08:48:13;9.40;;;7.77;;
10005;SDS011;5042;42.626;23.382;2024-02-15T08:50:42;9.77;;;7.87;;
10005;SDS011;5042;42.626;23.382;2024-02-15T08:53:10;10.80;;;8.17;;
10005;SDS011;5042;42.626;23.382;2024-02-15T08:55:37;10.90;;;7.80;;
10005;SDS011;5042;42.626;23.382;2024-02-15T08:58:04;10.17;;;8.00;;
10005;SDS011;5042;42.626;23.382;2024-02-15T09:00:31;9.87;;;7.80;;
10005;SDS011;5042;42.626;23.382;2024-02-15T09:03:00;9.27;;;8.03;;
10005;SDS011;5042;42.626;23.382;2024-02-15T09:05:26;9.40;;;8.40;;
10005;SDS011;5042;42.626;23.382;2024-02-15T09:07:53;9.57;;;7.80;;
10005;SDS011;5042;42.626;23.382;2024-02-15T09:10:21;9.27;;;7.80;;
10005;SDS011;5042;42.626;23.382;2024-02-15T09:12:48;11.33;;;8.40;;
10005;SDS011;5042;42.626;23.382;2024-02-15T09:15:15;9.67;;;8.30;;
10005;SDS011;5042;42.626;23.382;2024-02-15T09:17:43;10.93;;;8.43;;
10005;SDS011;5042;42.626;23.382;2024-02-15T09:20:13;10.17;;;7.90;;
10005;SDS011;5042;42.626;23.382;2024-02-15T09:22:41;9.17;;;7.60;;
10005;SDS011;5042;42.626;23.382;2024-02-15T09:25:09;9.37;;;8.27;;
10005;SDS011;5042;42.626;23.382;2024-02-15T09:27:38;11.27;;;8.23;;
10005;SDS011;5042;42.626;23.382;2024-02-15T09:30:05;10.10;;;8.40;;
10005;SDS011;5042;42.626;23.382;2024-02-15T09:32:35;10.47;;;8.57;;
10005;SDS011;5042;42.626;23.382;2024-02-15T09:35:02;8.70;;;7.80;;
10005;SDS011;5042;42.626;23.382;2024-02-15T09:37:32;9.27;;;8.37;;
10005;SDS011;5042;42.626;23.382;2024-02-15T09:39:59;8.97;;;7.83;;
10005;SDS011;5042;42.626;23.382;2024-02-15T09:42:31;10.30;;;8.33;;
10005;SDS011;5042;42.626;23.382;2024-02-15T09:45:00;10.63;;;8.47;;
10005;SDS011;5042;42.626;23.382;2024-02-15T09:47:30;10.67;;;8.77;;
10005;SDS011;5042;42.626;23.382;2024-02-15T09:50:01;11.40;;;8.13;;
10005;SDS011;5042;42.626;23.382;2024-02-15T09:52:29;9.30;;;7.70;;
10005;SDS011;5042;42.626;23.382;2024-02-15T09:55:02;10.20;;;7.73;;
10005;SDS011;5042;42.626;23.382;2024-02-15T09:57:29;10.60;;;7.53;;
10005;SDS011;5042;42.626;23.382;2024-02-15T09:59:58;9.47;;;8.33;;
10005;SDS011;5042;42.626;23.382;2024-02-15T10:02:26;10.97;;;7.40;;
10005;SDS011;5042;42.626;23.382;2024-02-15T10:04:53;16.53;;;14.80;;
10005;SDS011;5042;42.626;23.382;2024-02-15T10:07:21;8.37;;;7.37;;
10005;SDS011;5042;42.626;23.382;2024-02-15T10:09:50;9.80;;;7.90;;
10005;SDS011;5042;42.626;23.382;2024-02-15T10:12:17;10.23;;;7.50;;
10005;SDS011;5042;42.626;23.382;2024-02-15T10:14:47;10.07;;;8.10;;
10005;SDS011;5042;42.626;23.382;2024-02-15T10:17:19;11.47;;;8.17;;
10005;SDS011;5042;42.626;23.382;2024-02-15T10:20:03;10.97;;;8.53;;
10005;SDS011;5042;42.626;23.382;2024-02-15T10:22:31;12.93;;;8.13;;
10005;SDS011;5042;42.626;23.382;2024-02-15T10:27:45;10.50;;;8.03;;
10005;SDS011;5042;42.626;23.382;2024-02-15T10:30:16;11.97;;;8.40;;
10005;SDS011;5042;42.626;23.382;2024-02-15T10:32:44;9.60;;;8.40;;
10005;SDS011;5042;42.626;23.382;2024-02-15T10:35:18;14.13;;;10.53;;
10005;SDS011;5042;42.626;23.382;2024-02-15T10:37:46;12.70;;;8.17;;
10005;SDS011;5042;42.626;23.382;2024-02-15T10:40:18;9.47;;;7.50;;
10005;SDS011;5042;42.626;23.382;2024-02-15T10:42:46;9.70;;;7.40;;
10005;SDS011;5042;42.626;23.382;2024-02-15T10:45:14;10.17;;;7.90;;
10005;SDS011;5042;42.626;23.382;2024-02-15T10:47:43;10.47;;;7.60;;
10005;SDS011;5042;42.626;23.382;2024-02-15T10:50:11;9.50;;;7.90;;
10005;SDS011;5042;42.626;23.382;2024-02-15T10:52:40;9.30;;;7.33;;
10005;SDS011;5042;42.626;23.382;2024-02-15T10:55:14;9.93;;;7.63;;
10005;SDS011;5042;42.626;23.382;2024-02-15T10:57:49;9.73;;;7.67;;
10005;SDS011;5042;42.626;23.382;2024-02-15T11:00:17;11.30;;;8.10;;
10005;SDS011;5042;42.626;23.382;2024-02-15T11:02:54;9.77;;;7.00;;
10005;SDS011;5042;42.626;23.382;2024-02-15T11:05:29;10.50;;;7.97;;
10005;SDS011;5042;42.626;23.382;2024-02-15T11:07:59;9.17;;;7.93;;
10005;SDS011;5042;42.626;23.382;2024-02-15T11:10:30;10.90;;;8.40;;
10005;SDS011;5042;42.626;23.382;2024-02-15T11:12:58;10.20;;;7.20;;
10005;SDS011;5042;42.626;23.382;2024-02-15T11:21:11;10.83;;;8.13;;
10005;SDS011;5042;42.626;23.382;2024-02-15T11:23:38;8.60;;;6.60;;
10005;SDS011;5042;42.626;23.382;2024-02-15T11:26:10;10.03;;;6.90;;
10005;SDS011;5042;42.626;23.382;2024-02-15T11:29:24;10.57;;;6.93;;
10005;SDS011;5042;42.626;23.382;2024-02-15T11:35:14;9.70;;;7.00;;
10005;SDS011;5042;42.626;23.382;2024-02-15T11:43:50;7.77;;;6.83;;
10005;SDS011;5042;42.626;23.382;2024-02-15T11:46:21;9.30;;;6.43;;
10005;SDS011;5042;42.626;23.382;2024-02-15T11:48:51;8.93;;;6.50;;
10005;SDS011;5042;42.626;23.382;2024-02-15T11:51:25;7.57;;;6.63;;
10005;SDS011;5042;42.626;23.382;2024-02-15T11:53:59;8.50;;;6.80;;
10005;SDS011;5042;42.626;23.382;2024-02-15T11:56:30;7.80;;;6.43;;
10005;SDS011;5042;42.626;23.382;2024-02-15T11:59:04;6.73;;;6.03;;
10005;SDS011;5042;42.626;23.382;2024-02-15T12:01:32;8.40;;;6.73;;
10005;SDS011;5042;42.626;23.382;2024-02-15T12:04:18;8.67;;;6.73;;
10005;SDS011;5042;42.626;23.382;2024-02-15T12:07:02;9.80;;;6.50;;
10005;SDS011;5042;42.626;23.382;2024-02-15T12:09:58;8.60;;;6.20;;
10005;SDS011;5042;42.626;23.382;2024-02-15T12:12:50;7.60;;;6.60;;
10005;SDS011;5042;42.626;23.382;2024-02-15T12:15:36;7.50;;;6.13;;
10005;SDS011;5042;42.626;23.382;2024-02-15T12:18:20;7.87;;;6.37;;
10005;SDS011;5042;42.626;23.382;2024-02-15T12:21:07;8.97;;;6.33;;
10005;SDS011;5042;42.626;23.382;2024-02-15T12:23:37;8.03;;;6.80;;
10005;SDS011;5042;42.626;23.382;2024-02-15T12:26:06;8.87;;;6.30;;
10005;SDS011;5042;42.626;23.382;2024-02-15T12:28:34;8.83;;;7.23;;
10005;SDS011;5042;42.626;23.382;2024-02-15T12:31:03;7.60;;;6.70;;
10005;SDS011;5042;42.626;23.382;2024-02-15T12:33:32;8.03;;;6.27;;
10005;SDS011;5042;42.626;23.382;2024-02-15T12:36:03;7.97;;;6.07;;
10005;SDS011;5042;42.626;23.382;2024-02-15T12:38:30;7.60;;;6.27;;
10005;SDS011;5042;42.626;23.382;2024-02-15T12:40:59;8.60;;;6.63;;
10005;SDS011;5042;42.626;23.382;2024-02-15T12:43:27;7.90;;;6.63;;
10005;SDS011;5042;42.626;23.382;2024-02-15T12:45:54;8.57;;;6.57;;
10005;SDS011;5042;42.626;23.382;2024-02-15T12:48:23;7.07;;;6.37;;
10005;SDS011;5042;42.626;23.382;2024-02-15T12:50:51;7.53;;;6.73;;
10005;SDS011;5042;42.626;23.382;2024-02-15T12:53:21;20.67;;;15.67;;
10005;SDS011;5042;42.626;23.382;2024-02-15T12:55:54;19.43;;;15.10;;
10005;SDS011;5042;42.626;23.382;2024-02-15T12:58:22;16.00;;;11.27;;
10005;SDS011;5042;42.626;23.382;2024-02-15T13:00:54;13.33;;;8.53;;
10005;SDS011;5042;42.626;23.382;2024-02-15T13:03:25;8.30;;;7.17;;
10005;SDS011;5042;42.626;23.382;2024-02-15T13:05:52;12.63;;;6.33;;
10005;SDS011;5042;42.626;23.382;2024-02-15T13:08:19;7.27;;;6.53;;
10005;SDS011;5042;42.626;23.382;2024-02-15T13:10:46;10.90;;;7.57;;
10005;SDS011;5042;42.626;23.382;2024-02-15T13:13:13;7.63;;;6.37;;
10005;SDS011;5042;42.626;23.382;2024-02-15T13:15:41;9.03;;;6.90;;
10005;SDS011;5042;42.626;23.382;2024-02-15T13:18:09;6.63;;;5.93;;
10005;SDS011;5042;42.626;23.382;2024-02-15T13:20:38;6.93;;;5.93;;
10005;SDS011;5042;42.626;23.382;2024-02-15T13:23:05;6.77;;;5.63;;
10005;SDS011;5042;42.626;23.382;2024-02-15T13:25:40;6.13;;;5.53;;
10005;SDS011;5042;42.626;23.382;2024-02-15T13:28:08;5.90;;;5.10;;
10005;SDS011;5042;42.626;23.382;2024-02-15T13:30:36;7.33;;;5.27;;
10005;SDS011;5042;42.626;23.382;2024-02-15T13:33:03;5.33;;;4.83;;
10005;SDS011;5042;42.626;23.382;2024-02-15T13:35:31;6.00;;;5.40;;
10005;SDS011;5042;42.626;23.382;2024-02-15T13:37:59;7.23;;;5.70;;
10005;SDS011;5042;42.626;23.382;2024-02-15T13:40:27;6.87;;;6.07;;
10005;SDS011;5042;42.626;23.382;2024-02-15T13:42:56;6.97;;;5.93;;
10005;SDS011;5042;42.626;23.382;2024-02-15T13:45:26;6.87;;;6.17;;
10005;SDS011;5042;42.626;23.382;2024-02-15T13:47:57;6.67;;;5.50;;
10005;SDS011;5042;42.626;23.382;2024-02-15T13:50:27;7.13;;;6.00;;
10005;SDS011;5042;42.626;23.382;2024-02-15T13:52:55;7.87;;;6.63;;
10005;SDS011;5042;42.626;23.382;2024-02-15T13:55:24;7.20;;;6.50;;
10005;SDS011;5042;42.626;23.382;2024-02-15T13:57:52;7.23;;;6.37;;
10005;SDS011;5042;42.626;23.382;2024-02-15T14:00:20;7.37;;;6.10;;
10005;SDS011;5042;42.626;23.382;2024-02-15T14:02:48;7.37;;;6.47;;
10005;SDS011;5042;42.626;23.382;2024-02-15T14:05:15;9.17;;;6.80;;
10005;SDS011;5042;42.626;23.382;2024-02-15T14:07:45;6.87;;;5.73;;
10005;SDS011;5042;42.626;23.382;2024-02-15T14:10:14;6.10;;;5.50;;
10005;SDS011;5042;42.626;23.382;2024-02-15T14:12:44;6.57;;;5.60;;
10005;SDS011;5042;42.626;23.382;2024-02-15T14:15:11;7.90;;;5.97;;
10005;SDS011;5042;42.626;23.382;2024-02-15T14:17:38;8.63;;;5.40;;
10005;SDS011;5042;42.626;23.382;2024-02-15T14:20:06;7.13;;;5.30;;
10005;SDS011;5042;42.626;23.382;2024-02-15T14:22:38;7.03;;;5.40;;
10005;SDS011;5042;42.626;23.382;2024-02-15T14:25:05;6.20;;;5.60;;
10005;SDS011;5042;42.626;23.382;2024-02-15T14:27:33;5.47;;;4.97;;
10005;SDS011;5042;42.626;23.382;2024-02-15T14:30:02;5.40;;;4.90;;
10005;SDS011;5042;42.626;23.382;2024-02-15T14:32:46;6.00;;;5.40;;
10005;SDS011;5042;42.626;23.382;2024-02-15T14:35:30;5.50;;;4.90;;
10005;SDS011;5042;42.626;23.382;2024-02-15T14:38:00;6.27;;;5.23;;
10005;SDS011;5042;42.626;23.382;2024-02-15T14:40:30;6.27;;;5.67;;
10005;SDS011;5042;42.626;23.382;2024-02-15T14:42:58;7.37;;;5.60;;
10005;SDS011;5042;42.626;23.382;2024-02-15T14:45:27;5.90;;;5.30;;
10005;SDS011;5042;42.626;23.382;2024-02-15T14:47:54;7.17;;;5.70;;
10005;SDS011;5042;42.626;23.382;2024-02-15T14:50:21;6.20;;;5.60;;
10005;SDS011;5042;42.626;23.382;2024-02-15T14:52:49;7.10;;;5.47;;
10005;SDS011;5042;42.626;23.382;2024-02-15T14:55:17;6.93;;;6.07;;
10005;SDS011;5042;42.626;23.382;2024-02-15T14:57:44;7.00;;;5.90;;
10005;SDS011;5042;42.626;23.382;2024-02-15T15:00:11;8.27;;;6.23;;
10005;SDS011;5042;42.626;23.382;2024-02-15T15:02:43;7.43;;;5.90;;
10005;SDS011;5042;42.626;23.382;2024-02-15T15:05:11;6.63;;;5.97;;
10005;SDS011;5042;42.626;23.382;2024-02-15T15:07:56;6.47;;;5.77;;